Current Weather

Kenosha Rgnl

Kenosha, Wisconsin (KENW)

Report from: Wednesday, August 17, 2022 8:53 PM CDT
Current time: Wednesday, August 17, 2022 9:40 PM CDT

Nearby weather
Weather history
Weather forecast

Temperature17.8°C (64.0°F)
Dew point13.9°C (57.0°F)
Winds Calm
Visibility10 mi. (16.1 km)
Clouds Sky clear
Altimeter30.10 in.Hg (1019 mB)
Relative humidity78 %
Density altitude346 ft. (105 m)
Sea-level pressure101.9 kPa (1019 mB, 30.09 in.Hg)
Remarks Automated weather observing station with precipitation discriminator
Flight conditions Visual Meteorological Conditions
Raw dataKENW 180153Z 00000KT 10SM CLR 18/14 A3010 RMK AO2 SLP189 T01780139
An error has occurred. This application may no longer respond until reloaded. Reload 🗙